sensor_id;sensor_type;location;lat;lon;timestamp;P1;durP1;ratioP1;P2;durP2;ratioP2
72404;SDS011;60395;52.020;113.548;2023-08-30T00:02:34;28.05;;;14.23;;
72404;SDS011;60395;52.020;113.548;2023-08-30T00:05:39;28.90;;;13.32;;
72404;SDS011;60395;52.020;113.548;2023-08-30T00:08:43;33.30;;;15.13;;
72404;SDS011;60395;52.020;113.548;2023-08-30T00:11:46;26.25;;;12.00;;
72404;SDS011;60395;52.020;113.548;2023-08-30T00:14:49;29.30;;;10.25;;
72404;SDS011;60395;52.020;113.548;2023-08-30T00:17:53;22.73;;;11.27;;
72404;SDS011;60395;52.020;113.548;2023-08-30T00:20:56;19.55;;;9.95;;
72404;SDS011;60395;52.020;113.548;2023-08-30T00:23:59;18.38;;;10.80;;
72404;SDS011;60395;52.020;113.548;2023-08-30T00:27:03;16.30;;;10.15;;
72404;SDS011;60395;52.020;113.548;2023-08-30T00:30:07;16.23;;;10.73;;
72404;SDS011;60395;52.020;113.548;2023-08-30T00:33:11;22.55;;;11.00;;
72404;SDS011;60395;52.020;113.548;2023-08-30T00:36:14;25.00;;;12.10;;
72404;SDS011;60395;52.020;113.548;2023-08-30T00:39:19;18.52;;;11.32;;
72404;SDS011;60395;52.020;113.548;2023-08-30T00:42:22;20.23;;;11.95;;
72404;SDS011;60395;52.020;113.548;2023-08-30T00:45:26;23.15;;;11.65;;
72404;SDS011;60395;52.020;113.548;2023-08-30T00:48:29;16.92;;;12.60;;
72404;SDS011;60395;52.020;113.548;2023-08-30T00:51:33;25.20;;;13.03;;
72404;SDS011;60395;52.020;113.548;2023-08-30T00:54:36;25.17;;;13.10;;
72404;SDS011;60395;52.020;113.548;2023-08-30T00:57:41;22.20;;;13.32;;
72404;SDS011;60395;52.020;113.548;2023-08-30T01:00:47;31.15;;;15.07;;
72404;SDS011;60395;52.020;113.548;2023-08-30T01:03:51;31.45;;;14.50;;
72404;SDS011;60395;52.020;113.548;2023-08-30T01:06:54;42.30;;;14.23;;
72404;SDS011;60395;52.020;113.548;2023-08-30T01:09:57;29.30;;;13.98;;
72404;SDS011;60395;52.020;113.548;2023-08-30T01:13:04;29.52;;;14.73;;
72404;SDS011;60395;52.020;113.548;2023-08-30T01:16:11;25.50;;;13.57;;
72404;SDS011;60395;52.020;113.548;2023-08-30T01:26:17;26.50;;;14.13;;
72404;SDS011;60395;52.020;113.548;2023-08-30T01:29:27;24.27;;;13.73;;
72404;SDS011;60395;52.020;113.548;2023-08-30T01:32:33;27.20;;;14.40;;
72404;SDS011;60395;52.020;113.548;2023-08-30T01:35:37;29.17;;;14.70;;
72404;SDS011;60395;52.020;113.548;2023-08-30T01:38:43;26.42;;;14.07;;
72404;SDS011;60395;52.020;113.548;2023-08-30T01:41:48;25.92;;;13.18;;
72404;SDS011;60395;52.020;113.548;2023-08-30T01:44:55;26.42;;;12.98;;
72404;SDS011;60395;52.020;113.548;2023-08-30T01:48:02;27.02;;;13.85;;
72404;SDS011;60395;52.020;113.548;2023-08-30T01:51:08;26.25;;;12.95;;
72404;SDS011;60395;52.020;113.548;2023-08-30T01:54:12;24.90;;;12.37;;
72404;SDS011;60395;52.020;113.548;2023-08-30T01:57:20;31.70;;;12.50;;
72404;SDS011;60395;52.020;113.548;2023-08-30T02:00:24;23.17;;;13.15;;
72404;SDS011;60395;52.020;113.548;2023-08-30T02:03:27;27.67;;;13.30;;
72404;SDS011;60395;52.020;113.548;2023-08-30T02:06:54;22.55;;;10.82;;
72404;SDS011;60395;52.020;113.548;2023-08-30T02:10:06;21.42;;;10.48;;
72404;SDS011;60395;52.020;113.548;2023-08-30T02:13:13;20.48;;;9.02;;
72404;SDS011;60395;52.020;113.548;2023-08-30T02:16:18;15.48;;;8.20;;
72404;SDS011;60395;52.020;113.548;2023-08-30T02:19:22;20.27;;;9.57;;
72404;SDS011;60395;52.020;113.548;2023-08-30T02:22:26;22.50;;;9.40;;
72404;SDS011;60395;52.020;113.548;2023-08-30T02:25:29;21.80;;;8.93;;
72404;SDS011;60395;52.020;113.548;2023-08-30T02:28:32;17.95;;;8.85;;
72404;SDS011;60395;52.020;113.548;2023-08-30T02:31:35;25.58;;;7.93;;
72404;SDS011;60395;52.020;113.548;2023-08-30T02:34:39;16.85;;;7.70;;
72404;SDS011;60395;52.020;113.548;2023-08-30T02:37:42;19.58;;;7.88;;
72404;SDS011;60395;52.020;113.548;2023-08-30T02:40:45;13.65;;;6.93;;
72404;SDS011;60395;52.020;113.548;2023-08-30T02:43:50;12.48;;;6.47;;
72404;SDS011;60395;52.020;113.548;2023-08-30T02:46:53;15.02;;;6.65;;
72404;SDS011;60395;52.020;113.548;2023-08-30T02:49:57;14.40;;;7.05;;
72404;SDS011;60395;52.020;113.548;2023-08-30T02:53:00;15.77;;;6.72;;
72404;SDS011;60395;52.020;113.548;2023-08-30T02:56:03;16.75;;;6.80;;
72404;SDS011;60395;52.020;113.548;2023-08-30T02:59:06;13.25;;;6.40;;
72404;SDS011;60395;52.020;113.548;2023-08-30T03:02:10;11.63;;;6.18;;
72404;SDS011;60395;52.020;113.548;2023-08-30T03:05:13;18.38;;;5.97;;
72404;SDS011;60395;52.020;113.548;2023-08-30T03:08:17;16.00;;;6.50;;
72404;SDS011;60395;52.020;113.548;2023-08-30T03:11:20;13.15;;;6.05;;
72404;SDS011;60395;52.020;113.548;2023-08-30T03:14:25;13.45;;;5.88;;
72404;SDS011;60395;52.020;113.548;2023-08-30T03:17:29;12.73;;;5.72;;
72404;SDS011;60395;52.020;113.548;2023-08-30T03:20:34;14.45;;;5.70;;
72404;SDS011;60395;52.020;113.548;2023-08-30T03:23:38;23.67;;;5.50;;
72404;SDS011;60395;52.020;113.548;2023-08-30T03:26:43;14.13;;;5.40;;
72404;SDS011;60395;52.020;113.548;2023-08-30T03:29:46;11.30;;;4.20;;
72404;SDS011;60395;52.020;113.548;2023-08-30T03:32:50;9.02;;;4.68;;
72404;SDS011;60395;52.020;113.548;2023-08-30T03:35:53;10.10;;;4.55;;
72404;SDS011;60395;52.020;113.548;2023-08-30T03:39:00;11.23;;;4.53;;
72404;SDS011;60395;52.020;113.548;2023-08-30T03:42:03;10.93;;;4.50;;
72404;SDS011;60395;52.020;113.548;2023-08-30T03:45:07;12.27;;;5.10;;
72404;SDS011;60395;52.020;113.548;2023-08-30T03:48:11;15.95;;;5.30;;
72404;SDS011;60395;52.020;113.548;2023-08-30T03:51:14;7.30;;;4.40;;
72404;SDS011;60395;52.020;113.548;2023-08-30T03:54:18;6.32;;;3.50;;
72404;SDS011;60395;52.020;113.548;2023-08-30T03:57:21;7.45;;;3.90;;
72404;SDS011;60395;52.020;113.548;2023-08-30T04:00:24;12.15;;;5.43;;
72404;SDS011;60395;52.020;113.548;2023-08-30T04:03:27;7.97;;;4.70;;
72404;SDS011;60395;52.020;113.548;2023-08-30T04:06:31;13.20;;;5.28;;
72404;SDS011;60395;52.020;113.548;2023-08-30T04:09:35;8.05;;;4.32;;
72404;SDS011;60395;52.020;113.548;2023-08-30T04:12:38;10.13;;;4.47;;
72404;SDS011;60395;52.020;113.548;2023-08-30T04:15:41;9.60;;;4.53;;
72404;SDS011;60395;52.020;113.548;2023-08-30T04:18:44;12.13;;;4.50;;
72404;SDS011;60395;52.020;113.548;2023-08-30T04:21:48;23.83;;;5.30;;
72404;SDS011;60395;52.020;113.548;2023-08-30T04:24:51;11.20;;;4.18;;
72404;SDS011;60395;52.020;113.548;2023-08-30T04:27:54;9.00;;;4.32;;
72404;SDS011;60395;52.020;113.548;2023-08-30T04:30:59;19.58;;;4.90;;
72404;SDS011;60395;52.020;113.548;2023-08-30T04:34:03;6.13;;;4.18;;
72404;SDS011;60395;52.020;113.548;2023-08-30T04:37:06;8.95;;;4.05;;
72404;SDS011;60395;52.020;113.548;2023-08-30T04:40:10;5.18;;;3.65;;
72404;SDS011;60395;52.020;113.548;2023-08-30T04:43:14;9.55;;;4.50;;
72404;SDS011;60395;52.020;113.548;2023-08-30T04:46:17;10.07;;;4.25;;
72404;SDS011;60395;52.020;113.548;2023-08-30T04:49:21;5.95;;;3.83;;
72404;SDS011;60395;52.020;113.548;2023-08-30T04:52:24;9.23;;;4.15;;
72404;SDS011;60395;52.020;113.548;2023-08-30T04:55:30;9.57;;;4.38;;
72404;SDS011;60395;52.020;113.548;2023-08-30T04:58:34;8.87;;;4.20;;
72404;SDS011;60395;52.020;113.548;2023-08-30T05:01:37;5.47;;;3.50;;
72404;SDS011;60395;52.020;113.548;2023-08-30T05:04:42;7.55;;;3.88;;
72404;SDS011;60395;52.020;113.548;2023-08-30T05:07:45;8.35;;;4.65;;
72404;SDS011;60395;52.020;113.548;2023-08-30T05:10:49;8.48;;;4.40;;
72404;SDS011;60395;52.020;113.548;2023-08-30T05:13:52;6.38;;;4.15;;
72404;SDS011;60395;52.020;113.548;2023-08-30T05:16:55;7.07;;;4.32;;
72404;SDS011;60395;52.020;113.548;2023-08-30T05:19:59;31.85;;;8.63;;
72404;SDS011;60395;52.020;113.548;2023-08-30T05:23:02;15.40;;;5.32;;
72404;SDS011;60395;52.020;113.548;2023-08-30T05:26:05;12.03;;;5.00;;
72404;SDS011;60395;52.020;113.548;2023-08-30T05:29:09;7.38;;;3.65;;
72404;SDS011;60395;52.020;113.548;2023-08-30T05:32:12;7.50;;;3.65;;
72404;SDS011;60395;52.020;113.548;2023-08-30T05:35:21;7.90;;;5.85;;
72404;SDS011;60395;52.020;113.548;2023-08-30T05:38:52;5.25;;;3.75;;
72404;SDS011;60395;52.020;113.548;2023-08-30T05:42:07;6.30;;;4.03;;
72404;SDS011;60395;52.020;113.548;2023-08-30T05:45:10;8.43;;;4.00;;
72404;SDS011;60395;52.020;113.548;2023-08-30T05:48:15;7.43;;;3.67;;
72404;SDS011;60395;52.020;113.548;2023-08-30T05:51:18;8.32;;;3.90;;
72404;SDS011;60395;52.020;113.548;2023-08-30T05:54:22;6.80;;;3.72;;
72404;SDS011;60395;52.020;113.548;2023-08-30T05:57:26;5.95;;;3.42;;
72404;SDS011;60395;52.020;113.548;2023-08-30T06:00:31;8.27;;;4.10;;
72404;SDS011;60395;52.020;113.548;2023-08-30T06:03:34;8.00;;;3.60;;
72404;SDS011;60395;52.020;113.548;2023-08-30T06:06:38;7.05;;;3.55;;
72404;SDS011;60395;52.020;113.548;2023-08-30T06:09:41;5.43;;;3.33;;
72404;SDS011;60395;52.020;113.548;2023-08-30T06:12:45;8.55;;;4.88;;
72404;SDS011;60395;52.020;113.548;2023-08-30T06:15:51;6.57;;;4.10;;
72404;SDS011;60395;52.020;113.548;2023-08-30T06:18:55;9.73;;;5.57;;
72404;SDS011;60395;52.020;113.548;2023-08-30T06:22:00;6.57;;;3.90;;
72404;SDS011;60395;52.020;113.548;2023-08-30T06:25:04;12.13;;;6.18;;
72404;SDS011;60395;52.020;113.548;2023-08-30T06:28:09;6.53;;;4.07;;
72404;SDS011;60395;52.020;113.548;2023-08-30T06:31:12;5.93;;;3.95;;
72404;SDS011;60395;52.020;113.548;2023-08-30T06:34:16;4.40;;;3.42;;
72404;SDS011;60395;52.020;113.548;2023-08-30T06:37:19;6.70;;;3.80;;
72404;SDS011;60395;52.020;113.548;2023-08-30T06:40:22;6.63;;;3.70;;
72404;SDS011;60395;52.020;113.548;2023-08-30T06:43:26;5.78;;;3.42;;
72404;SDS011;60395;52.020;113.548;2023-08-30T06:46:29;5.35;;;3.88;;
72404;SDS011;60395;52.020;113.548;2023-08-30T06:49:32;6.72;;;3.97;;
72404;SDS011;60395;52.020;113.548;2023-08-30T06:52:36;5.82;;;3.67;;
72404;SDS011;60395;52.020;113.548;2023-08-30T06:55:39;4.65;;;3.30;;
72404;SDS011;60395;52.020;113.548;2023-08-30T06:58:42;5.50;;;3.90;;
72404;SDS011;60395;52.020;113.548;2023-08-30T07:01:46;4.97;;;3.30;;
72404;SDS011;60395;52.020;113.548;2023-08-30T07:04:49;7.38;;;3.20;;
72404;SDS011;60395;52.020;113.548;2023-08-30T07:07:52;4.63;;;3.50;;
72404;SDS011;60395;52.020;113.548;2023-08-30T07:10:55;10.70;;;6.57;;
72404;SDS011;60395;52.020;113.548;2023-08-30T07:13:59;6.88;;;4.80;;
72404;SDS011;60395;52.020;113.548;2023-08-30T07:17:02;7.93;;;5.60;;
72404;SDS011;60395;52.020;113.548;2023-08-30T07:20:06;9.45;;;4.53;;
72404;SDS011;60395;52.020;113.548;2023-08-30T07:23:11;7.68;;;3.92;;
72404;SDS011;60395;52.020;113.548;2023-08-30T07:26:14;6.43;;;3.47;;
72404;SDS011;60395;52.020;113.548;2023-08-30T07:29:17;6.80;;;3.50;;
72404;SDS011;60395;52.020;113.548;2023-08-30T07:32:20;7.50;;;3.92;;
72404;SDS011;60395;52.020;113.548;2023-08-30T07:35:23;7.03;;;3.90;;
72404;SDS011;60395;52.020;113.548;2023-08-30T07:38:26;5.30;;;3.50;;
72404;SDS011;60395;52.020;113.548;2023-08-30T07:41:31;8.40;;;4.50;;
72404;SDS011;60395;52.020;113.548;2023-08-30T07:44:36;6.20;;;3.70;;
72404;SDS011;60395;52.020;113.548;2023-08-30T07:47:39;6.28;;;3.67;;
72404;SDS011;60395;52.020;113.548;2023-08-30T07:50:43;56.35;;;6.45;;
72404;SDS011;60395;52.020;113.548;2023-08-30T07:53:46;9.52;;;3.78;;
72404;SDS011;60395;52.020;113.548;2023-08-30T07:56:49;5.93;;;3.33;;
72404;SDS011;60395;52.020;113.548;2023-08-30T07:59:53;5.15;;;3.33;;
72404;SDS011;60395;52.020;113.548;2023-08-30T08:02:56;5.47;;;3.55;;
72404;SDS011;60395;52.020;113.548;2023-08-30T08:05:59;7.65;;;3.60;;
72404;SDS011;60395;52.020;113.548;2023-08-30T08:09:02;6.90;;;3.50;;
72404;SDS011;60395;52.020;113.548;2023-08-30T08:12:06;6.43;;;3.47;;
72404;SDS011;60395;52.020;113.548;2023-08-30T08:15:12;9.32;;;4.10;;
72404;SDS011;60395;52.020;113.548;2023-08-30T08:18:17;8.85;;;3.58;;
72404;SDS011;60395;52.020;113.548;2023-08-30T08:21:20;5.90;;;3.08;;
72404;SDS011;60395;52.020;113.548;2023-08-30T08:24:24;4.47;;;3.53;;
72404;SDS011;60395;52.020;113.548;2023-08-30T08:27:28;6.10;;;3.80;;
72404;SDS011;60395;52.020;113.548;2023-08-30T08:30:32;5.63;;;3.90;;
72404;SDS011;60395;52.020;113.548;2023-08-30T08:33:36;9.73;;;4.43;;
72404;SDS011;60395;52.020;113.548;2023-08-30T08:36:40;7.83;;;4.77;;
72404;SDS011;60395;52.020;113.548;2023-08-30T08:39:45;10.38;;;4.13;;
72404;SDS011;60395;52.020;113.548;2023-08-30T08:42:49;10.85;;;4.10;;
72404;SDS011;60395;52.020;113.548;2023-08-30T08:45:57;13.10;;;4.55;;
72404;SDS011;60395;52.020;113.548;2023-08-30T08:49:12;9.23;;;3.83;;
72404;SDS011;60395;52.020;113.548;2023-08-30T08:52:17;8.90;;;3.67;;
72404;SDS011;60395;52.020;113.548;2023-08-30T08:55:35;8.85;;;3.50;;
72404;SDS011;60395;52.020;113.548;2023-08-30T08:58:40;5.82;;;3.42;;
72404;SDS011;60395;52.020;113.548;2023-08-30T09:01:45;7.97;;;3.33;;
72404;SDS011;60395;52.020;113.548;2023-08-30T09:04:48;7.00;;;3.60;;
72404;SDS011;60395;52.020;113.548;2023-08-30T09:07:52;4.75;;;3.38;;
72404;SDS011;60395;52.020;113.548;2023-08-30T09:10:58;8.10;;;3.58;;
72404;SDS011;60395;52.020;113.548;2023-08-30T09:14:01;6.70;;;3.70;;
72404;SDS011;60395;52.020;113.548;2023-08-30T09:17:04;7.07;;;3.33;;
72404;SDS011;60395;52.020;113.548;2023-08-30T09:20:08;5.63;;;3.63;;
72404;SDS011;60395;52.020;113.548;2023-08-30T09:23:17;5.97;;;3.60;;
72404;SDS011;60395;52.020;113.548;2023-08-30T09:26:21;5.75;;;3.33;;
72404;SDS011;60395;52.020;113.548;2023-08-30T09:29:24;5.97;;;3.58;;
72404;SDS011;60395;52.020;113.548;2023-08-30T09:32:27;9.20;;;3.70;;
72404;SDS011;60395;52.020;113.548;2023-08-30T09:35:31;6.72;;;3.67;;
72404;SDS011;60395;52.020;113.548;2023-08-30T09:38:36;5.10;;;3.53;;
72404;SDS011;60395;52.020;113.548;2023-08-30T09:41:46;5.05;;;3.40;;
72404;SDS011;60395;52.020;113.548;2023-08-30T09:44:51;6.20;;;3.67;;
72404;SDS011;60395;52.020;113.548;2023-08-30T09:47:54;7.70;;;3.83;;
72404;SDS011;60395;52.020;113.548;2023-08-30T09:50:58;7.13;;;3.70;;
72404;SDS011;60395;52.020;113.548;2023-08-30T09:54:06;5.28;;;3.42;;
72404;SDS011;60395;52.020;113.548;2023-08-30T09:57:37;6.43;;;3.90;;
72404;SDS011;60395;52.020;113.548;2023-08-30T10:00:41;5.10;;;3.78;;
72404;SDS011;60395;52.020;113.548;2023-08-30T10:03:45;6.13;;;3.40;;
72404;SDS011;60395;52.020;113.548;2023-08-30T10:06:49;5.47;;;3.88;;
72404;SDS011;60395;52.020;113.548;2023-08-30T10:09:54;7.47;;;3.97;;
72404;SDS011;60395;52.020;113.548;2023-08-30T10:13:10;7.00;;;3.53;;
72404;SDS011;60395;52.020;113.548;2023-08-30T10:16:15;7.78;;;4.20;;
72404;SDS011;60395;52.020;113.548;2023-08-30T10:19:26;6.85;;;3.85;;
72404;SDS011;60395;52.020;113.548;2023-08-30T10:22:30;9.40;;;4.82;;
72404;SDS011;60395;52.020;113.548;2023-08-30T10:25:34;7.68;;;3.80;;
72404;SDS011;60395;52.020;113.548;2023-08-30T10:28:38;8.32;;;4.20;;
72404;SDS011;60395;52.020;113.548;2023-08-30T10:34:47;7.65;;;3.50;;
72404;SDS011;60395;52.020;113.548;2023-08-30T10:37:59;12.15;;;4.95;;
72404;SDS011;60395;52.020;113.548;2023-08-30T10:41:06;9.18;;;4.20;;
72404;SDS011;60395;52.020;113.548;2023-08-30T10:44:13;10.63;;;3.60;;
72404;SDS011;60395;52.020;113.548;2023-08-30T10:47:18;26.35;;;14.27;;
72404;SDS011;60395;52.020;113.548;2023-08-30T10:50:27;21.23;;;9.30;;
72404;SDS011;60395;52.020;113.548;2023-08-30T10:53:33;20.42;;;6.38;;
72404;SDS011;60395;52.020;113.548;2023-08-30T10:56:44;12.07;;;3.92;;
72404;SDS011;60395;52.020;113.548;2023-08-30T11:00:10;11.90;;;3.75;;
72404;SDS011;60395;52.020;113.548;2023-08-30T11:03:22;9.63;;;3.95;;
72404;SDS011;60395;52.020;113.548;2023-08-30T11:06:25;11.95;;;3.75;;
72404;SDS011;60395;52.020;113.548;2023-08-30T11:09:28;7.25;;;4.50;;
72404;SDS011;60395;52.020;113.548;2023-08-30T11:12:32;12.37;;;3.87;;
72404;SDS011;60395;52.020;113.548;2023-08-30T11:15:36;8.70;;;4.10;;
72404;SDS011;60395;52.020;113.548;2023-08-30T11:18:39;12.43;;;3.78;;
72404;SDS011;60395;52.020;113.548;2023-08-30T11:21:44;9.75;;;3.30;;
72404;SDS011;60395;52.020;113.548;2023-08-30T11:24:48;7.15;;;3.50;;
72404;SDS011;60395;52.020;113.548;2023-08-30T11:28:01;10.38;;;3.90;;
72404;SDS011;60395;52.020;113.548;2023-08-30T11:31:05;12.35;;;3.80;;
72404;SDS011;60395;52.020;113.548;2023-08-30T11:34:08;7.38;;;4.13;;
72404;SDS011;60395;52.020;113.548;2023-08-30T11:37:11;14.88;;;4.60;;
72404;SDS011;60395;52.020;113.548;2023-08-30T11:40:15;10.55;;;3.42;;
72404;SDS011;60395;52.020;113.548;2023-08-30T11:43:18;9.07;;;3.63;;
72404;SDS011;60395;52.020;113.548;2023-08-30T11:46:22;8.68;;;3.75;;
72404;SDS011;60395;52.020;113.548;2023-08-30T11:49:26;10.20;;;4.03;;
72404;SDS011;60395;52.020;113.548;2023-08-30T11:52:31;6.13;;;3.38;;
72404;SDS011;60395;52.020;113.548;2023-08-30T11:55:35;12.23;;;3.72;;
72404;SDS011;60395;52.020;113.548;2023-08-30T11:58:39;7.57;;;4.57;;
72404;SDS011;60395;52.020;113.548;2023-08-30T12:01:42;7.38;;;3.35;;
72404;SDS011;60395;52.020;113.548;2023-08-30T12:04:46;15.98;;;9.20;;
72404;SDS011;60395;52.020;113.548;2023-08-30T12:07:50;14.25;;;4.50;;
72404;SDS011;60395;52.020;113.548;2023-08-30T12:10:53;8.85;;;3.90;;
72404;SDS011;60395;52.020;113.548;2023-08-30T12:14:01;7.35;;;3.58;;
72404;SDS011;60395;52.020;113.548;2023-08-30T12:17:05;8.90;;;4.00;;
72404;SDS011;60395;52.020;113.548;2023-08-30T12:20:14;6.40;;;3.30;;
72404;SDS011;60395;52.020;113.548;2023-08-30T12:23:26;6.75;;;3.50;;
72404;SDS011;60395;52.020;113.548;2023-08-30T12:26:31;9.48;;;3.70;;
72404;SDS011;60395;52.020;113.548;2023-08-30T12:29:38;11.07;;;4.53;;
72404;SDS011;60395;52.020;113.548;2023-08-30T12:32:43;8.63;;;4.07;;
72404;SDS011;60395;52.020;113.548;2023-08-30T12:35:47;10.95;;;5.85;;
72404;SDS011;60395;52.020;113.548;2023-08-30T12:38:51;14.60;;;5.20;;
72404;SDS011;60395;52.020;113.548;2023-08-30T12:41:54;11.13;;;4.57;;
72404;SDS011;60395;52.020;113.548;2023-08-30T12:44:58;15.95;;;5.13;;
72404;SDS011;60395;52.020;113.548;2023-08-30T12:48:01;9.95;;;4.88;;
72404;SDS011;60395;52.020;113.548;2023-08-30T12:51:04;12.52;;;4.93;;
72404;SDS011;60395;52.020;113.548;2023-08-30T12:54:08;11.38;;;5.03;;
72404;SDS011;60395;52.020;113.548;2023-08-30T12:57:11;23.30;;;5.80;;
72404;SDS011;60395;52.020;113.548;2023-08-30T13:00:14;29.20;;;6.20;;
72404;SDS011;60395;52.020;113.548;2023-08-30T13:03:17;25.05;;;7.32;;
72404;SDS011;60395;52.020;113.548;2023-08-30T13:06:21;16.30;;;7.50;;
72404;SDS011;60395;52.020;113.548;2023-08-30T13:09:24;15.90;;;4.70;;
72404;SDS011;60395;52.020;113.548;2023-08-30T13:12:27;5.85;;;3.58;;
72404;SDS011;60395;52.020;113.548;2023-08-30T13:15:30;10.55;;;5.13;;
72404;SDS011;60395;52.020;113.548;2023-08-30T13:18:34;13.77;;;5.43;;
72404;SDS011;60395;52.020;113.548;2023-08-30T13:21:37;6.47;;;3.70;;
72404;SDS011;60395;52.020;113.548;2023-08-30T13:24:42;7.43;;;3.92;;
72404;SDS011;60395;52.020;113.548;2023-08-30T13:27:46;17.77;;;4.30;;
72404;SDS011;60395;52.020;113.548;2023-08-30T13:30:49;10.83;;;4.37;;
72404;SDS011;60395;52.020;113.548;2023-08-30T13:33:53;10.23;;;4.32;;
72404;SDS011;60395;52.020;113.548;2023-08-30T13:36:57;15.20;;;4.45;;
72404;SDS011;60395;52.020;113.548;2023-08-30T13:40:00;20.35;;;4.35;;
72404;SDS011;60395;52.020;113.548;2023-08-30T13:43:03;15.02;;;5.07;;
72404;SDS011;60395;52.020;113.548;2023-08-30T13:46:06;11.05;;;3.72;;
72404;SDS011;60395;52.020;113.548;2023-08-30T13:49:10;9.80;;;3.67;;
72404;SDS011;60395;52.020;113.548;2023-08-30T13:52:13;10.80;;;3.72;;
72404;SDS011;60395;52.020;113.548;2023-08-30T13:55:17;16.40;;;6.40;;
72404;SDS011;60395;52.020;113.548;2023-08-30T13:58:20;10.70;;;4.25;;
72404;SDS011;60395;52.020;113.548;2023-08-30T14:01:23;15.13;;;4.18;;
72404;SDS011;60395;52.020;113.548;2023-08-30T14:04:27;7.05;;;4.28;;
72404;SDS011;60395;52.020;113.548;2023-08-30T14:07:31;18.08;;;8.88;;
72404;SDS011;60395;52.020;113.548;2023-08-30T14:10:34;14.73;;;4.40;;
72404;SDS011;60395;52.020;113.548;2023-08-30T14:13:38;7.95;;;3.90;;
72404;SDS011;60395;52.020;113.548;2023-08-30T14:16:41;13.27;;;4.60;;
72404;SDS011;60395;52.020;113.548;2023-08-30T14:19:44;9.88;;;4.43;;
72404;SDS011;60395;52.020;113.548;2023-08-30T14:22:47;9.18;;;4.28;;
72404;SDS011;60395;52.020;113.548;2023-08-30T14:26:02;16.35;;;4.18;;
72404;SDS011;60395;52.020;113.548;2023-08-30T14:29:11;11.88;;;3.95;;
72404;SDS011;60395;52.020;113.548;2023-08-30T14:32:14;9.80;;;4.40;;
72404;SDS011;60395;52.020;113.548;2023-08-30T14:35:18;13.90;;;6.97;;
72404;SDS011;60395;52.020;113.548;2023-08-30T14:38:26;19.52;;;8.43;;
72404;SDS011;60395;52.020;113.548;2023-08-30T14:41:29;17.70;;;4.40;;
72404;SDS011;60395;52.020;113.548;2023-08-30T14:44:34;8.98;;;3.90;;
72404;SDS011;60395;52.020;113.548;2023-08-30T14:47:37;15.52;;;4.40;;
72404;SDS011;60395;52.020;113.548;2023-08-30T14:50:41;11.77;;;5.57;;
72404;SDS011;60395;52.020;113.548;2023-08-30T14:53:44;11.15;;;4.38;;
72404;SDS011;60395;52.020;113.548;2023-08-30T14:56:47;10.82;;;4.38;;
72404;SDS011;60395;52.020;113.548;2023-08-30T14:59:52;15.20;;;4.82;;
72404;SDS011;60395;52.020;113.548;2023-08-30T15:05:59;11.50;;;4.75;;
72404;SDS011;60395;52.020;113.548;2023-08-30T15:09:02;14.48;;;4.30;;
72404;SDS011;60395;52.020;113.548;2023-08-30T15:12:06;11.60;;;5.18;;
72404;SDS011;60395;52.020;113.548;2023-08-30T15:15:09;12.38;;;5.20;;
72404;SDS011;60395;52.020;113.548;2023-08-30T15:18:13;19.40;;;4.70;;
72404;SDS011;60395;52.020;113.548;2023-08-30T15:21:17;13.00;;;4.90;;
72404;SDS011;60395;52.020;113.548;2023-08-30T15:24:20;13.82;;;4.90;;
72404;SDS011;60395;52.020;113.548;2023-08-30T15:27:23;10.63;;;4.55;;
72404;SDS011;60395;52.020;113.548;2023-08-30T15:30:26;13.85;;;5.32;;
72404;SDS011;60395;52.020;113.548;2023-08-30T15:33:30;9.50;;;5.05;;
72404;SDS011;60395;52.020;113.548;2023-08-30T15:36:33;9.27;;;4.50;;
72404;SDS011;60395;52.020;113.548;2023-08-30T15:39:36;15.52;;;4.60;;
72404;SDS011;60395;52.020;113.548;2023-08-30T15:42:39;18.33;;;4.72;;
72404;SDS011;60395;52.020;113.548;2023-08-30T15:45:43;14.20;;;5.00;;
72404;SDS011;60395;52.020;113.548;2023-08-30T15:48:46;11.40;;;5.05;;
72404;SDS011;60395;52.020;113.548;2023-08-30T15:51:50;14.13;;;5.93;;
72404;SDS011;60395;52.020;113.548;2023-08-30T15:54:53;12.73;;;4.95;;
72404;SDS011;60395;52.020;113.548;2023-08-30T15:57:57;10.82;;;5.20;;
72404;SDS011;60395;52.020;113.548;2023-08-30T16:01:02;17.77;;;4.63;;
72404;SDS011;60395;52.020;113.548;2023-08-30T16:04:06;14.02;;;4.85;;
72404;SDS011;60395;52.020;113.548;2023-08-30T16:07:10;14.63;;;4.95;;
72404;SDS011;60395;52.020;113.548;2023-08-30T16:10:13;21.50;;;4.97;;
72404;SDS011;60395;52.020;113.548;2023-08-30T16:13:16;12.25;;;5.38;;
72404;SDS011;60395;52.020;113.548;2023-08-30T16:16:20;16.70;;;6.57;;
72404;SDS011;60395;52.020;113.548;2023-08-30T16:19:23;12.10;;;6.05;;
72404;SDS011;60395;52.020;113.548;2023-08-30T16:22:28;10.52;;;5.63;;
72404;SDS011;60395;52.020;113.548;2023-08-30T16:25:31;18.65;;;6.90;;
72404;SDS011;60395;52.020;113.548;2023-08-30T16:28:34;16.55;;;5.53;;
72404;SDS011;60395;52.020;113.548;2023-08-30T16:31:38;14.93;;;5.20;;
72404;SDS011;60395;52.020;113.548;2023-08-30T16:34:41;14.57;;;5.00;;
72404;SDS011;60395;52.020;113.548;2023-08-30T16:37:47;13.82;;;5.25;;
72404;SDS011;60395;52.020;113.548;2023-08-30T16:40:50;13.05;;;5.05;;
72404;SDS011;60395;52.020;113.548;2023-08-30T16:43:54;18.42;;;5.90;;
72404;SDS011;60395;52.020;113.548;2023-08-30T16:46:57;14.18;;;5.13;;
72404;SDS011;60395;52.020;113.548;2023-08-30T16:50:01;14.48;;;5.13;;
72404;SDS011;60395;52.020;113.548;2023-08-30T16:53:04;15.65;;;5.63;;
72404;SDS011;60395;52.020;113.548;2023-08-30T16:56:11;13.35;;;4.97;;
72404;SDS011;60395;52.020;113.548;2023-08-30T16:59:14;15.40;;;5.25;;
72404;SDS011;60395;52.020;113.548;2023-08-30T17:02:18;9.80;;;5.30;;
72404;SDS011;60395;52.020;113.548;2023-08-30T17:05:21;16.92;;;5.32;;
72404;SDS011;60395;52.020;113.548;2023-08-30T17:08:24;14.40;;;5.25;;
72404;SDS011;60395;52.020;113.548;2023-08-30T17:11:28;14.40;;;5.80;;
72404;SDS011;60395;52.020;113.548;2023-08-30T17:14:31;10.05;;;5.00;;
72404;SDS011;60395;52.020;113.548;2023-08-30T17:17:34;17.92;;;5.30;;
72404;SDS011;60395;52.020;113.548;2023-08-30T17:20:38;15.05;;;4.70;;
72404;SDS011;60395;52.020;113.548;2023-08-30T17:23:41;15.48;;;5.50;;
72404;SDS011;60395;52.020;113.548;2023-08-30T17:26:44;19.15;;;5.65;;
72404;SDS011;60395;52.020;113.548;2023-08-30T17:29:48;13.20;;;5.25;;
72404;SDS011;60395;52.020;113.548;2023-08-30T17:32:51;15.38;;;5.00;;
72404;SDS011;60395;52.020;113.548;2023-08-30T17:35:55;14.65;;;5.47;;
72404;SDS011;60395;52.020;113.548;2023-08-30T17:38:58;16.02;;;5.40;;
72404;SDS011;60395;52.020;113.548;2023-08-30T17:42:01;11.70;;;5.43;;
72404;SDS011;60395;52.020;113.548;2023-08-30T17:45:05;14.43;;;5.10;;
72404;SDS011;60395;52.020;113.548;2023-08-30T17:48:09;10.07;;;5.53;;
72404;SDS011;60395;52.020;113.548;2023-08-30T17:51:12;14.15;;;5.45;;
72404;SDS011;60395;52.020;113.548;2023-08-30T17:54:15;80.35;;;42.03;;
72404;SDS011;60395;52.020;113.548;2023-08-30T17:57:19;16.58;;;5.88;;
72404;SDS011;60395;52.020;113.548;2023-08-30T18:00:22;16.35;;;5.93;;
72404;SDS011;60395;52.020;113.548;2023-08-30T18:03:25;10.88;;;5.50;;